sensor_id;sensor_type;location;lat;lon;timestamp;P1;durP1;ratioP1;P2;durP2;ratioP2
7410;SDS011;3747;48.628;9.058;2022-07-23T00:01:07;4.00;;;3.70;;
7410;SDS011;3747;48.628;9.058;2022-07-23T00:03:34;5.27;;;4.07;;
7410;SDS011;3747;48.628;9.058;2022-07-23T00:06:00;4.57;;;4.13;;
7410;SDS011;3747;48.628;9.058;2022-07-23T00:08:27;3.60;;;3.40;;
7410;SDS011;3747;48.628;9.058;2022-07-23T00:10:54;3.70;;;3.40;;
7410;SDS011;3747;48.628;9.058;2022-07-23T00:13:22;3.60;;;3.30;;
7410;SDS011;3747;48.628;9.058;2022-07-23T00:15:48;4.60;;;3.30;;
7410;SDS011;3747;48.628;9.058;2022-07-23T00:18:15;4.37;;;3.97;;
7410;SDS011;3747;48.628;9.058;2022-07-23T00:20:42;3.80;;;3.53;;
7410;SDS011;3747;48.628;9.058;2022-07-23T00:23:08;4.40;;;4.00;;
7410;SDS011;3747;48.628;9.058;2022-07-23T00:25:35;4.57;;;4.23;;
7410;SDS011;3747;48.628;9.058;2022-07-23T00:28:02;4.40;;;4.00;;
7410;SDS011;3747;48.628;9.058;2022-07-23T00:30:30;3.90;;;3.60;;
7410;SDS011;3747;48.628;9.058;2022-07-23T00:32:58;3.30;;;3.10;;
7410;SDS011;3747;48.628;9.058;2022-07-23T00:35:27;3.27;;;3.03;;
7410;SDS011;3747;48.628;9.058;2022-07-23T00:37:57;3.60;;;3.30;;
7410;SDS011;3747;48.628;9.058;2022-07-23T00:40:25;4.27;;;3.27;;
7410;SDS011;3747;48.628;9.058;2022-07-23T00:42:52;3.10;;;2.90;;
7410;SDS011;3747;48.628;9.058;2022-07-23T00:45:19;2.93;;;2.73;;
7410;SDS011;3747;48.628;9.058;2022-07-23T00:47:48;3.30;;;3.10;;
7410;SDS011;3747;48.628;9.058;2022-07-23T00:50:14;4.00;;;3.70;;
7410;SDS011;3747;48.628;9.058;2022-07-23T00:52:41;3.57;;;3.27;;
7410;SDS011;3747;48.628;9.058;2022-07-23T00:55:09;3.60;;;3.30;;
7410;SDS011;3747;48.628;9.058;2022-07-23T00:57:37;3.87;;;3.57;;
7410;SDS011;3747;48.628;9.058;2022-07-23T01:00:05;3.67;;;3.37;;
7410;SDS011;3747;48.628;9.058;2022-07-23T01:02:34;3.80;;;3.50;;
7410;SDS011;3747;48.628;9.058;2022-07-23T01:05:02;3.53;;;3.20;;
7410;SDS011;3747;48.628;9.058;2022-07-23T01:07:29;3.93;;;3.60;;
7410;SDS011;3747;48.628;9.058;2022-07-23T01:09:56;3.90;;;3.60;;
7410;SDS011;3747;48.628;9.058;2022-07-23T01:12:23;4.00;;;3.60;;
7410;SDS011;3747;48.628;9.058;2022-07-23T01:14:53;4.30;;;4.00;;
7410;SDS011;3747;48.628;9.058;2022-07-23T01:17:20;3.87;;;3.47;;
7410;SDS011;3747;48.628;9.058;2022-07-23T01:19:47;4.60;;;4.20;;
7410;SDS011;3747;48.628;9.058;2022-07-23T01:22:15;4.27;;;3.80;;
7410;SDS011;3747;48.628;9.058;2022-07-23T01:24:46;5.87;;;4.43;;
7410;SDS011;3747;48.628;9.058;2022-07-23T01:27:13;4.40;;;4.00;;
7410;SDS011;3747;48.628;9.058;2022-07-23T01:29:40;3.97;;;3.63;;
7410;SDS011;3747;48.628;9.058;2022-07-23T01:32:06;4.77;;;4.43;;
7410;SDS011;3747;48.628;9.058;2022-07-23T01:34:33;4.17;;;3.87;;
7410;SDS011;3747;48.628;9.058;2022-07-23T01:37:00;4.57;;;4.17;;
7410;SDS011;3747;48.628;9.058;2022-07-23T01:39:26;4.77;;;4.37;;
7410;SDS011;3747;48.628;9.058;2022-07-23T01:41:54;4.50;;;4.10;;
7410;SDS011;3747;48.628;9.058;2022-07-23T01:44:21;4.87;;;4.47;;
7410;SDS011;3747;48.628;9.058;2022-07-23T01:46:48;4.27;;;3.97;;
7410;SDS011;3747;48.628;9.058;2022-07-23T01:49:14;5.20;;;4.73;;
7410;SDS011;3747;48.628;9.058;2022-07-23T01:51:41;4.13;;;3.83;;
7410;SDS011;3747;48.628;9.058;2022-07-23T01:54:22;5.00;;;4.47;;
7410;SDS011;3747;48.628;9.058;2022-07-23T01:56:49;4.00;;;3.70;;
7410;SDS011;3747;48.628;9.058;2022-07-23T01:59:17;5.00;;;4.20;;
7410;SDS011;3747;48.628;9.058;2022-07-23T02:01:43;4.23;;;3.93;;
7410;SDS011;3747;48.628;9.058;2022-07-23T02:04:10;4.23;;;3.93;;
7410;SDS011;3747;48.628;9.058;2022-07-23T02:06:37;4.30;;;4.00;;
7410;SDS011;3747;48.628;9.058;2022-07-23T02:09:03;4.83;;;4.00;;
7410;SDS011;3747;48.628;9.058;2022-07-23T02:11:30;4.20;;;3.90;;
7410;SDS011;3747;48.628;9.058;2022-07-23T02:13:56;4.43;;;4.03;;
7410;SDS011;3747;48.628;9.058;2022-07-23T02:16:24;4.73;;;4.20;;
7410;SDS011;3747;48.628;9.058;2022-07-23T02:18:51;4.60;;;4.20;;
7410;SDS011;3747;48.628;9.058;2022-07-23T02:21:18;4.40;;;4.00;;
7410;SDS011;3747;48.628;9.058;2022-07-23T02:23:45;3.80;;;3.50;;
7410;SDS011;3747;48.628;9.058;2022-07-23T02:26:11;4.63;;;4.23;;
7410;SDS011;3747;48.628;9.058;2022-07-23T02:28:38;4.30;;;4.00;;
7410;SDS011;3747;48.628;9.058;2022-07-23T02:31:04;4.40;;;3.83;;
7410;SDS011;3747;48.628;9.058;2022-07-23T02:33:33;3.97;;;3.63;;
7410;SDS011;3747;48.628;9.058;2022-07-23T02:36:00;4.17;;;3.73;;
7410;SDS011;3747;48.628;9.058;2022-07-23T02:38:26;5.47;;;4.47;;
7410;SDS011;3747;48.628;9.058;2022-07-23T02:40:53;3.67;;;3.47;;
7410;SDS011;3747;48.628;9.058;2022-07-23T02:43:20;4.30;;;3.93;;
7410;SDS011;3747;48.628;9.058;2022-07-23T02:45:46;5.07;;;4.67;;
7410;SDS011;3747;48.628;9.058;2022-07-23T02:48:13;4.63;;;4.23;;
7410;SDS011;3747;48.628;9.058;2022-07-23T02:50:41;4.67;;;4.33;;
7410;SDS011;3747;48.628;9.058;2022-07-23T02:53:08;4.27;;;3.87;;
7410;SDS011;3747;48.628;9.058;2022-07-23T02:55:35;4.90;;;4.40;;
7410;SDS011;3747;48.628;9.058;2022-07-23T02:58:01;4.83;;;4.43;;
7410;SDS011;3747;48.628;9.058;2022-07-23T03:00:28;5.20;;;4.77;;
7410;SDS011;3747;48.628;9.058;2022-07-23T03:02:55;4.70;;;4.13;;
7410;SDS011;3747;48.628;9.058;2022-07-23T03:05:21;4.73;;;4.20;;
7410;SDS011;3747;48.628;9.058;2022-07-23T03:07:49;4.47;;;4.03;;
7410;SDS011;3747;48.628;9.058;2022-07-23T03:10:16;4.77;;;4.37;;
7410;SDS011;3747;48.628;9.058;2022-07-23T03:12:43;4.57;;;4.27;;
7410;SDS011;3747;48.628;9.058;2022-07-23T03:15:09;5.13;;;4.40;;
7410;SDS011;3747;48.628;9.058;2022-07-23T03:17:36;5.30;;;4.80;;
7410;SDS011;3747;48.628;9.058;2022-07-23T03:20:03;4.53;;;4.13;;
7410;SDS011;3747;48.628;9.058;2022-07-23T03:22:30;5.13;;;4.73;;
7410;SDS011;3747;48.628;9.058;2022-07-23T03:24:58;5.17;;;4.67;;
7410;SDS011;3747;48.628;9.058;2022-07-23T03:27:27;5.07;;;4.50;;
7410;SDS011;3747;48.628;9.058;2022-07-23T03:29:56;5.30;;;4.90;;
7410;SDS011;3747;48.628;9.058;2022-07-23T03:32:24;5.37;;;4.87;;
7410;SDS011;3747;48.628;9.058;2022-07-23T03:34:51;6.00;;;5.50;;
7410;SDS011;3747;48.628;9.058;2022-07-23T03:37:18;5.33;;;4.93;;
7410;SDS011;3747;48.628;9.058;2022-07-23T03:39:45;5.50;;;5.00;;
7410;SDS011;3747;48.628;9.058;2022-07-23T03:42:13;5.77;;;5.27;;
7410;SDS011;3747;48.628;9.058;2022-07-23T03:44:40;6.53;;;5.60;;
7410;SDS011;3747;48.628;9.058;2022-07-23T03:47:06;5.10;;;4.60;;
7410;SDS011;3747;48.628;9.058;2022-07-23T03:49:33;5.43;;;5.00;;
7410;SDS011;3747;48.628;9.058;2022-07-23T03:52:00;5.50;;;5.07;;
7410;SDS011;3747;48.628;9.058;2022-07-23T03:54:27;5.87;;;5.30;;
7410;SDS011;3747;48.628;9.058;2022-07-23T03:56:54;6.17;;;5.57;;
7410;SDS011;3747;48.628;9.058;2022-07-23T03:59:22;6.67;;;5.93;;
7410;SDS011;3747;48.628;9.058;2022-07-23T04:01:49;5.77;;;5.27;;
7410;SDS011;3747;48.628;9.058;2022-07-23T04:04:15;6.47;;;5.87;;
7410;SDS011;3747;48.628;9.058;2022-07-23T04:06:42;5.83;;;5.30;;
7410;SDS011;3747;48.628;9.058;2022-07-23T04:09:09;6.13;;;5.50;;
7410;SDS011;3747;48.628;9.058;2022-07-23T04:11:35;6.13;;;5.53;;
7410;SDS011;3747;48.628;9.058;2022-07-23T04:14:02;6.63;;;5.47;;
7410;SDS011;3747;48.628;9.058;2022-07-23T04:16:30;5.53;;;5.03;;
7410;SDS011;3747;48.628;9.058;2022-07-23T04:18:57;6.50;;;5.90;;
7410;SDS011;3747;48.628;9.058;2022-07-23T04:21:24;5.87;;;5.43;;
7410;SDS011;3747;48.628;9.058;2022-07-23T04:23:50;6.33;;;5.73;;
7410;SDS011;3747;48.628;9.058;2022-07-23T04:26:17;6.43;;;5.83;;
7410;SDS011;3747;48.628;9.058;2022-07-23T04:28:44;5.83;;;5.37;;
7410;SDS011;3747;48.628;9.058;2022-07-23T04:31:11;6.43;;;5.50;;
7410;SDS011;3747;48.628;9.058;2022-07-23T04:33:39;7.57;;;5.20;;
7410;SDS011;3747;48.628;9.058;2022-07-23T04:36:05;6.03;;;5.43;;
7410;SDS011;3747;48.628;9.058;2022-07-23T04:38:33;6.30;;;5.67;;
7410;SDS011;3747;48.628;9.058;2022-07-23T04:40:59;5.33;;;4.93;;
7410;SDS011;3747;48.628;9.058;2022-07-23T04:43:26;5.77;;;5.30;;
7410;SDS011;3747;48.628;9.058;2022-07-23T04:45:53;6.33;;;5.23;;
7410;SDS011;3747;48.628;9.058;2022-07-23T04:48:20;6.10;;;5.50;;
7410;SDS011;3747;48.628;9.058;2022-07-23T04:50:48;5.43;;;4.93;;
7410;SDS011;3747;48.628;9.058;2022-07-23T04:53:15;5.73;;;5.33;;
7410;SDS011;3747;48.628;9.058;2022-07-23T04:55:43;5.80;;;5.30;;
7410;SDS011;3747;48.628;9.058;2022-07-23T04:58:10;5.57;;;4.93;;
7410;SDS011;3747;48.628;9.058;2022-07-23T05:00:36;6.10;;;5.50;;
7410;SDS011;3747;48.628;9.058;2022-07-23T05:03:03;5.83;;;5.20;;
7410;SDS011;3747;48.628;9.058;2022-07-23T05:05:30;5.40;;;4.90;;
7410;SDS011;3747;48.628;9.058;2022-07-23T05:07:58;6.53;;;6.00;;
7410;SDS011;3747;48.628;9.058;2022-07-23T05:10:24;5.77;;;5.27;;
7410;SDS011;3747;48.628;9.058;2022-07-23T05:12:51;5.70;;;5.20;;
7410;SDS011;3747;48.628;9.058;2022-07-23T05:15:18;6.30;;;5.70;;
7410;SDS011;3747;48.628;9.058;2022-07-23T05:17:44;6.90;;;5.40;;
7410;SDS011;3747;48.628;9.058;2022-07-23T05:20:11;4.80;;;4.40;;
7410;SDS011;3747;48.628;9.058;2022-07-23T05:22:38;5.50;;;4.83;;
7410;SDS011;3747;48.628;9.058;2022-07-23T05:25:07;5.00;;;4.50;;
7410;SDS011;3747;48.628;9.058;2022-07-23T05:27:34;5.20;;;4.80;;
7410;SDS011;3747;48.628;9.058;2022-07-23T05:30:00;5.33;;;4.90;;
7410;SDS011;3747;48.628;9.058;2022-07-23T05:32:27;5.57;;;4.83;;
7410;SDS011;3747;48.628;9.058;2022-07-23T05:34:54;5.30;;;4.87;;
7410;SDS011;3747;48.628;9.058;2022-07-23T05:37:20;5.40;;;5.00;;
7410;SDS011;3747;48.628;9.058;2022-07-23T05:39:47;5.20;;;4.80;;
7410;SDS011;3747;48.628;9.058;2022-07-23T05:42:15;5.23;;;4.83;;
7410;SDS011;3747;48.628;9.058;2022-07-23T05:44:42;5.70;;;5.20;;
7410;SDS011;3747;48.628;9.058;2022-07-23T05:47:08;5.83;;;5.37;;
7410;SDS011;3747;48.628;9.058;2022-07-23T05:49:35;5.97;;;5.40;;
7410;SDS011;3747;48.628;9.058;2022-07-23T05:52:03;5.77;;;5.30;;
7410;SDS011;3747;48.628;9.058;2022-07-23T05:54:31;6.50;;;6.00;;
7410;SDS011;3747;48.628;9.058;2022-07-23T05:56:59;6.03;;;5.53;;
7410;SDS011;3747;48.628;9.058;2022-07-23T05:59:27;6.23;;;5.60;;
7410;SDS011;3747;48.628;9.058;2022-07-23T06:01:54;6.10;;;5.57;;
7410;SDS011;3747;48.628;9.058;2022-07-23T06:04:21;6.60;;;6.00;;
7410;SDS011;3747;48.628;9.058;2022-07-23T06:06:48;5.93;;;5.47;;
7410;SDS011;3747;48.628;9.058;2022-07-23T06:09:14;5.97;;;5.53;;
7410;SDS011;3747;48.628;9.058;2022-07-23T06:11:41;6.30;;;5.60;;
7410;SDS011;3747;48.628;9.058;2022-07-23T06:14:08;6.37;;;5.70;;
7410;SDS011;3747;48.628;9.058;2022-07-23T06:16:36;6.83;;;6.13;;
7410;SDS011;3747;48.628;9.058;2022-07-23T06:19:02;6.33;;;5.83;;
7410;SDS011;3747;48.628;9.058;2022-07-23T06:21:29;7.13;;;6.40;;
7410;SDS011;3747;48.628;9.058;2022-07-23T06:23:55;5.97;;;5.40;;
7410;SDS011;3747;48.628;9.058;2022-07-23T06:26:22;6.13;;;5.63;;
7410;SDS011;3747;48.628;9.058;2022-07-23T06:28:49;6.43;;;5.93;;
7410;SDS011;3747;48.628;9.058;2022-07-23T06:31:15;6.00;;;5.60;;
7410;SDS011;3747;48.628;9.058;2022-07-23T06:33:43;6.67;;;6.17;;
7410;SDS011;3747;48.628;9.058;2022-07-23T06:36:10;6.07;;;5.57;;
7410;SDS011;3747;48.628;9.058;2022-07-23T06:38:37;6.43;;;6.03;;
7410;SDS011;3747;48.628;9.058;2022-07-23T06:41:03;6.13;;;5.73;;
7410;SDS011;3747;48.628;9.058;2022-07-23T06:43:30;5.67;;;5.17;;
7410;SDS011;3747;48.628;9.058;2022-07-23T06:45:57;6.50;;;5.73;;
7410;SDS011;3747;48.628;9.058;2022-07-23T06:48:24;6.20;;;5.70;;
7410;SDS011;3747;48.628;9.058;2022-07-23T06:50:52;6.13;;;5.63;;
7410;SDS011;3747;48.628;9.058;2022-07-23T06:53:19;6.20;;;5.70;;
7410;SDS011;3747;48.628;9.058;2022-07-23T06:55:46;6.60;;;5.63;;
7410;SDS011;3747;48.628;9.058;2022-07-23T06:58:13;6.10;;;5.57;;
7410;SDS011;3747;48.628;9.058;2022-07-23T07:00:40;6.23;;;5.73;;
7410;SDS011;3747;48.628;9.058;2022-07-23T07:03:07;7.00;;;6.50;;
7410;SDS011;3747;48.628;9.058;2022-07-23T07:05:33;7.00;;;6.40;;
7410;SDS011;3747;48.628;9.058;2022-07-23T07:08:01;6.87;;;6.27;;
7410;SDS011;3747;48.628;9.058;2022-07-23T07:10:28;7.33;;;6.63;;
7410;SDS011;3747;48.628;9.058;2022-07-23T07:12:55;7.07;;;6.40;;
7410;SDS011;3747;48.628;9.058;2022-07-23T07:15:22;7.47;;;6.77;;
7410;SDS011;3747;48.628;9.058;2022-07-23T07:17:48;7.43;;;6.60;;
7410;SDS011;3747;48.628;9.058;2022-07-23T07:20:15;6.57;;;6.07;;
7410;SDS011;3747;48.628;9.058;2022-07-23T07:22:42;7.17;;;6.60;;
7410;SDS011;3747;48.628;9.058;2022-07-23T07:25:10;6.60;;;6.00;;
7410;SDS011;3747;48.628;9.058;2022-07-23T07:27:36;6.33;;;5.83;;
7410;SDS011;3747;48.628;9.058;2022-07-23T07:30:04;6.60;;;6.00;;
7410;SDS011;3747;48.628;9.058;2022-07-23T07:32:32;6.90;;;6.13;;
7410;SDS011;3747;48.628;9.058;2022-07-23T07:34:59;6.20;;;5.70;;
7410;SDS011;3747;48.628;9.058;2022-07-23T07:37:26;6.27;;;5.77;;
7410;SDS011;3747;48.628;9.058;2022-07-23T07:39:52;6.77;;;6.07;;
7410;SDS011;3747;48.628;9.058;2022-07-23T07:42:20;6.00;;;5.60;;
7410;SDS011;3747;48.628;9.058;2022-07-23T07:44:47;6.93;;;6.43;;
7410;SDS011;3747;48.628;9.058;2022-07-23T07:47:14;6.23;;;5.73;;
7410;SDS011;3747;48.628;9.058;2022-07-23T07:49:41;6.33;;;5.83;;
7410;SDS011;3747;48.628;9.058;2022-07-23T07:52:08;6.60;;;6.03;;
7410;SDS011;3747;48.628;9.058;2022-07-23T07:54:35;5.20;;;4.80;;
7410;SDS011;3747;48.628;9.058;2022-07-23T07:57:01;5.87;;;5.47;;
7410;SDS011;3747;48.628;9.058;2022-07-23T07:59:30;6.03;;;5.50;;
7410;SDS011;3747;48.628;9.058;2022-07-23T08:01:56;5.90;;;5.40;;
7410;SDS011;3747;48.628;9.058;2022-07-23T08:04:23;5.77;;;5.23;;
7410;SDS011;3747;48.628;9.058;2022-07-23T08:06:49;5.70;;;5.23;;
7410;SDS011;3747;48.628;9.058;2022-07-23T08:09:16;6.17;;;5.57;;
7410;SDS011;3747;48.628;9.058;2022-07-23T08:11:43;7.10;;;5.83;;
7410;SDS011;3747;48.628;9.058;2022-07-23T08:14:09;5.60;;;5.20;;
7410;SDS011;3747;48.628;9.058;2022-07-23T08:16:38;6.03;;;5.43;;
7410;SDS011;3747;48.628;9.058;2022-07-23T08:19:04;5.50;;;5.00;;
7410;SDS011;3747;48.628;9.058;2022-07-23T08:21:31;5.60;;;5.10;;
7410;SDS011;3747;48.628;9.058;2022-07-23T08:23:58;5.67;;;5.17;;
7410;SDS011;3747;48.628;9.058;2022-07-23T08:26:24;6.20;;;5.70;;
7410;SDS011;3747;48.628;9.058;2022-07-23T08:28:51;5.80;;;5.30;;
7410;SDS011;3747;48.628;9.058;2022-07-23T08:31:18;6.10;;;5.60;;
7410;SDS011;3747;48.628;9.058;2022-07-23T08:33:46;6.40;;;5.80;;
7410;SDS011;3747;48.628;9.058;2022-07-23T08:36:12;5.53;;;5.13;;
7410;SDS011;3747;48.628;9.058;2022-07-23T08:38:39;6.13;;;5.73;;
7410;SDS011;3747;48.628;9.058;2022-07-23T08:41:06;6.30;;;5.70;;
7410;SDS011;3747;48.628;9.058;2022-07-23T08:43:34;5.80;;;5.20;;
7410;SDS011;3747;48.628;9.058;2022-07-23T08:46:01;5.40;;;5.00;;
7410;SDS011;3747;48.628;9.058;2022-07-23T08:48:30;6.07;;;5.50;;
7410;SDS011;3747;48.628;9.058;2022-07-23T08:51:00;5.50;;;5.10;;
7410;SDS011;3747;48.628;9.058;2022-07-23T08:53:28;6.03;;;5.57;;
7410;SDS011;3747;48.628;9.058;2022-07-23T08:55:57;7.00;;;6.00;;
7410;SDS011;3747;48.628;9.058;2022-07-23T08:58:26;11.20;;;6.27;;
7410;SDS011;3747;48.628;9.058;2022-07-23T09:00:53;6.47;;;5.87;;
7410;SDS011;3747;48.628;9.058;2022-07-23T09:03:21;5.70;;;5.10;;
7410;SDS011;3747;48.628;9.058;2022-07-23T09:05:50;6.00;;;5.50;;
7410;SDS011;3747;48.628;9.058;2022-07-23T09:08:19;6.83;;;6.13;;
7410;SDS011;3747;48.628;9.058;2022-07-23T09:10:51;5.93;;;5.43;;
7410;SDS011;3747;48.628;9.058;2022-07-23T09:13:22;6.40;;;5.80;;
7410;SDS011;3747;48.628;9.058;2022-07-23T09:15:54;6.17;;;5.67;;
7410;SDS011;3747;48.628;9.058;2022-07-23T09:18:33;6.03;;;5.57;;
7410;SDS011;3747;48.628;9.058;2022-07-23T09:21:07;6.27;;;5.73;;
7410;SDS011;3747;48.628;9.058;2022-07-23T09:23:37;6.50;;;6.00;;
7410;SDS011;3747;48.628;9.058;2022-07-23T09:26:16;6.80;;;6.30;;
7410;SDS011;3747;48.628;9.058;2022-07-23T09:28:52;6.40;;;5.90;;
7410;SDS011;3747;48.628;9.058;2022-07-23T09:31:21;6.60;;;6.10;;
7410;SDS011;3747;48.628;9.058;2022-07-23T09:33:48;6.17;;;5.67;;
7410;SDS011;3747;48.628;9.058;2022-07-23T09:36:15;6.37;;;5.83;;
7410;SDS011;3747;48.628;9.058;2022-07-23T09:38:55;6.43;;;5.83;;
7410;SDS011;3747;48.628;9.058;2022-07-23T09:41:21;7.00;;;6.50;;
7410;SDS011;3747;48.628;9.058;2022-07-23T09:43:54;6.53;;;6.00;;
7410;SDS011;3747;48.628;9.058;2022-07-23T09:46:22;7.63;;;6.93;;
7410;SDS011;3747;48.628;9.058;2022-07-23T09:48:50;7.23;;;6.60;;
7410;SDS011;3747;48.628;9.058;2022-07-23T09:51:17;7.27;;;6.63;;
7410;SDS011;3747;48.628;9.058;2022-07-23T09:53:47;10.10;;;6.77;;
7410;SDS011;3747;48.628;9.058;2022-07-23T09:56:15;6.47;;;5.87;;
7410;SDS011;3747;48.628;9.058;2022-07-23T09:58:43;6.77;;;6.17;;
7410;SDS011;3747;48.628;9.058;2022-07-23T10:01:14;6.30;;;5.73;;
7410;SDS011;3747;48.628;9.058;2022-07-23T10:03:42;7.17;;;6.47;;
7410;SDS011;3747;48.628;9.058;2022-07-23T10:06:09;6.37;;;5.97;;
7410;SDS011;3747;48.628;9.058;2022-07-23T10:08:39;6.35;;;5.85;;
7410;SDS011;3747;48.628;9.058;2022-07-23T10:11:07;7.13;;;5.68;;
7410;SDS011;3747;48.628;9.058;2022-07-23T10:13:38;6.35;;;5.75;;
7410;SDS011;3747;48.628;9.058;2022-07-23T10:16:22;6.95;;;6.35;;
7410;SDS011;3747;48.628;9.058;2022-07-23T10:18:48;7.20;;;6.60;;
7410;SDS011;3747;48.628;9.058;2022-07-23T10:21:16;6.88;;;6.38;;
7410;SDS011;3747;48.628;9.058;2022-07-23T10:23:51;5.82;;;5.32;;
7410;SDS011;3747;48.628;9.058;2022-07-23T10:26:35;6.88;;;6.28;;
7410;SDS011;3747;48.628;9.058;2022-07-23T10:29:12;5.57;;;5.18;;
7410;SDS011;3747;48.628;9.058;2022-07-23T10:31:50;7.70;;;6.90;;
7410;SDS011;3747;48.628;9.058;2022-07-23T10:34:23;6.97;;;6.32;;
7410;SDS011;3747;48.628;9.058;2022-07-23T10:36:57;6.70;;;6.10;;
7410;SDS011;3747;48.628;9.058;2022-07-23T10:39:32;7.15;;;6.55;;
7410;SDS011;3747;48.628;9.058;2022-07-23T10:42:09;5.93;;;5.43;;
7410;SDS011;3747;48.628;9.058;2022-07-23T10:44:42;6.55;;;6.00;;
7410;SDS011;3747;48.628;9.058;2022-07-23T10:47:11;7.78;;;6.35;;
7410;SDS011;3747;48.628;9.058;2022-07-23T10:50:16;7.13;;;6.35;;
7410;SDS011;3747;48.628;9.058;2022-07-23T10:55:40;6.90;;;6.20;;
7410;SDS011;3747;48.628;9.058;2022-07-23T10:58:17;7.47;;;6.40;;
7410;SDS011;3747;48.628;9.058;2022-07-23T11:00:47;6.53;;;5.82;;
7410;SDS011;3747;48.628;9.058;2022-07-23T11:03:27;6.00;;;5.40;;
7410;SDS011;3747;48.628;9.058;2022-07-23T11:06:00;6.80;;;6.18;;
7410;SDS011;3747;48.628;9.058;2022-07-23T11:08:27;6.47;;;5.93;;
7410;SDS011;3747;48.628;9.058;2022-07-23T11:10:55;6.50;;;6.07;;
7410;SDS011;3747;48.628;9.058;2022-07-23T11:13:38;6.47;;;6.00;;
7410;SDS011;3747;48.628;9.058;2022-07-23T11:16:16;6.78;;;6.28;;
7410;SDS011;3747;48.628;9.058;2022-07-23T11:24:24;5.88;;;5.45;;
7410;SDS011;3747;48.628;9.058;2022-07-23T11:29:48;5.80;;;5.30;;
7410;SDS011;3747;48.628;9.058;2022-07-23T11:32:24;5.63;;;5.20;;
7410;SDS011;3747;48.628;9.058;2022-07-23T11:34:55;5.60;;;5.20;;
7410;SDS011;3747;48.628;9.058;2022-07-23T11:37:29;5.32;;;4.88;;
7410;SDS011;3747;48.628;9.058;2022-07-23T11:39:59;5.85;;;5.45;;
7410;SDS011;3747;48.628;9.058;2022-07-23T11:42:25;5.60;;;5.20;;
7410;SDS011;3747;48.628;9.058;2022-07-23T11:44:52;5.07;;;4.57;;
7410;SDS011;3747;48.628;9.058;2022-07-23T11:47:21;5.90;;;5.30;;
7410;SDS011;3747;48.628;9.058;2022-07-23T11:49:53;5.40;;;5.00;;
7410;SDS011;3747;48.628;9.058;2022-07-23T11:52:21;4.60;;;4.30;;
7410;SDS011;3747;48.628;9.058;2022-07-23T11:54:49;5.22;;;4.78;;
7410;SDS011;3747;48.628;9.058;2022-07-23T11:57:18;5.72;;;5.22;;
7410;SDS011;3747;48.628;9.058;2022-07-23T11:59:46;4.90;;;4.60;;
7410;SDS011;3747;48.628;9.058;2022-07-23T12:02:16;5.70;;;5.30;;
7410;SDS011;3747;48.628;9.058;2022-07-23T12:04:45;5.20;;;4.80;;
7410;SDS011;3747;48.628;9.058;2022-07-23T12:07:23;5.50;;;5.00;;
7410;SDS011;3747;48.628;9.058;2022-07-23T12:09:51;5.20;;;4.78;;
7410;SDS011;3747;48.628;9.058;2022-07-23T12:12:18;5.40;;;4.90;;
7410;SDS011;3747;48.628;9.058;2022-07-23T12:14:48;5.07;;;4.50;;
7410;SDS011;3747;48.628;9.058;2022-07-23T12:17:16;6.78;;;4.90;;
7410;SDS011;3747;48.628;9.058;2022-07-23T12:19:45;5.22;;;4.82;;
7410;SDS011;3747;48.628;9.058;2022-07-23T12:22:12;5.45;;;5.03;;
7410;SDS011;3747;48.628;9.058;2022-07-23T12:24:52;5.07;;;4.78;;
7410;SDS011;3747;48.628;9.058;2022-07-23T12:27:23;5.00;;;4.60;;
7410;SDS011;3747;48.628;9.058;2022-07-23T12:29:50;5.75;;;5.35;;
7410;SDS011;3747;48.628;9.058;2022-07-23T12:32:18;6.05;;;5.55;;
7410;SDS011;3747;48.628;9.058;2022-07-23T12:34:47;5.45;;;5.05;;
7410;SDS011;3747;48.628;9.058;2022-07-23T12:37:25;5.82;;;5.32;;
7410;SDS011;3747;48.628;9.058;2022-07-23T12:39:53;5.80;;;5.32;;
7410;SDS011;3747;48.628;9.058;2022-07-23T12:42:20;5.97;;;5.47;;
7410;SDS011;3747;48.628;9.058;2022-07-23T12:45:06;5.80;;;5.38;;
7410;SDS011;3747;48.628;9.058;2022-07-23T12:47:51;6.17;;;5.70;;
7410;SDS011;3747;48.628;9.058;2022-07-23T12:50:44;6.47;;;5.87;;
7410;SDS011;3747;48.628;9.058;2022-07-23T12:53:15;6.17;;;5.60;;
7410;SDS011;3747;48.628;9.058;2022-07-23T12:55:44;5.43;;;5.03;;
7410;SDS011;3747;48.628;9.058;2022-07-23T12:58:13;6.03;;;5.53;;
7410;SDS011;3747;48.628;9.058;2022-07-23T13:01:01;5.33;;;5.00;;
7410;SDS011;3747;48.628;9.058;2022-07-23T13:03:31;5.90;;;5.40;;
7410;SDS011;3747;48.628;9.058;2022-07-23T13:06:02;6.00;;;5.38;;
7410;SDS011;3747;48.628;9.058;2022-07-23T13:08:30;6.43;;;5.80;;
7410;SDS011;3747;48.628;9.058;2022-07-23T13:10:58;5.40;;;5.05;;
7410;SDS011;3747;48.628;9.058;2022-07-23T13:13:26;5.35;;;4.90;;
7410;SDS011;3747;48.628;9.058;2022-07-23T13:15:55;5.57;;;5.18;;
7410;SDS011;3747;48.628;9.058;2022-07-23T13:18:22;6.30;;;5.70;;
7410;SDS011;3747;48.628;9.058;2022-07-23T13:20:51;5.93;;;5.50;;
7410;SDS011;3747;48.628;9.058;2022-07-23T13:23:19;5.95;;;5.45;;
7410;SDS011;3747;48.628;9.058;2022-07-23T13:25:46;5.97;;;5.47;;
7410;SDS011;3747;48.628;9.058;2022-07-23T13:28:14;6.00;;;5.60;;
7410;SDS011;3747;48.628;9.058;2022-07-23T13:30:42;6.17;;;5.73;;
7410;SDS011;3747;48.628;9.058;2022-07-23T13:33:10;6.40;;;6.00;;
7410;SDS011;3747;48.628;9.058;2022-07-23T13:35:37;6.73;;;6.03;;
7410;SDS011;3747;48.628;9.058;2022-07-23T13:38:04;6.37;;;5.87;;
7410;SDS011;3747;48.628;9.058;2022-07-23T13:40:34;6.30;;;5.67;;
7410;SDS011;3747;48.628;9.058;2022-07-23T13:43:03;6.70;;;6.10;;
7410;SDS011;3747;48.628;9.058;2022-07-23T13:45:30;6.70;;;6.10;;
7410;SDS011;3747;48.628;9.058;2022-07-23T13:47:57;5.97;;;5.47;;
7410;SDS011;3747;48.628;9.058;2022-07-23T13:50:24;5.93;;;5.43;;
7410;SDS011;3747;48.628;9.058;2022-07-23T13:52:51;5.87;;;5.37;;
7410;SDS011;3747;48.628;9.058;2022-07-23T13:55:17;6.40;;;5.90;;
7410;SDS011;3747;48.628;9.058;2022-07-23T13:57:46;6.17;;;5.67;;
7410;SDS011;3747;48.628;9.058;2022-07-23T14:00:13;6.53;;;5.67;;
7410;SDS011;3747;48.628;9.058;2022-07-23T14:02:40;7.10;;;5.77;;
7410;SDS011;3747;48.628;9.058;2022-07-23T14:05:09;8.90;;;6.00;;
7410;SDS011;3747;48.628;9.058;2022-07-23T14:07:36;6.33;;;5.83;;
7410;SDS011;3747;48.628;9.058;2022-07-23T14:10:05;6.53;;;6.03;;
7410;SDS011;3747;48.628;9.058;2022-07-23T14:12:33;6.17;;;5.67;;
7410;SDS011;3747;48.628;9.058;2022-07-23T14:15:01;6.63;;;6.00;;
7410;SDS011;3747;48.628;9.058;2022-07-23T14:17:28;6.60;;;6.10;;
7410;SDS011;3747;48.628;9.058;2022-07-23T14:19:55;6.77;;;6.17;;
7410;SDS011;3747;48.628;9.058;2022-07-23T14:22:21;6.10;;;5.60;;
7410;SDS011;3747;48.628;9.058;2022-07-23T14:24:48;7.33;;;5.50;;
7410;SDS011;3747;48.628;9.058;2022-07-23T14:27:15;6.13;;;5.53;;
7410;SDS011;3747;48.628;9.058;2022-07-23T14:29:42;6.50;;;6.00;;
7410;SDS011;3747;48.628;9.058;2022-07-23T14:32:10;7.00;;;5.73;;
7410;SDS011;3747;48.628;9.058;2022-07-23T14:34:37;6.60;;;6.00;;
7410;SDS011;3747;48.628;9.058;2022-07-23T14:37:03;5.90;;;5.50;;
7410;SDS011;3747;48.628;9.058;2022-07-23T14:39:30;5.82;;;5.32;;
7410;SDS011;3747;48.628;9.058;2022-07-23T14:41:57;6.25;;;5.60;;
7410;SDS011;3747;48.628;9.058;2022-07-23T14:44:23;5.50;;;5.10;;
7410;SDS011;3747;48.628;9.058;2022-07-23T14:46:50;6.10;;;5.55;;
7410;SDS011;3747;48.628;9.058;2022-07-23T14:49:18;5.95;;;5.55;;
7410;SDS011;3747;48.628;9.058;2022-07-23T14:51:45;6.45;;;5.90;;
7410;SDS011;3747;48.628;9.058;2022-07-23T14:54:12;5.78;;;5.38;;
7410;SDS011;3747;48.628;9.058;2022-07-23T14:56:39;8.77;;;5.70;;
7410;SDS011;3747;48.628;9.058;2022-07-23T14:59:06;6.45;;;5.78;;
7410;SDS011;3747;48.628;9.058;2022-07-23T15:01:33;6.40;;;5.90;;
7410;SDS011;3747;48.628;9.058;2022-07-23T15:04:01;6.43;;;5.93;;
7410;SDS011;3747;48.628;9.058;2022-07-23T15:06:31;5.97;;;5.47;;
7410;SDS011;3747;48.628;9.058;2022-07-23T15:08:58;6.38;;;5.88;;
7410;SDS011;3747;48.628;9.058;2022-07-23T15:11:25;6.25;;;5.65;;
7410;SDS011;3747;48.628;9.058;2022-07-23T15:13:54;6.30;;;5.80;;
7410;SDS011;3747;48.628;9.058;2022-07-23T15:16:20;6.03;;;5.53;;
7410;SDS011;3747;48.628;9.058;2022-07-23T15:18:47;7.00;;;6.30;;
7410;SDS011;3747;48.628;9.058;2022-07-23T15:21:14;6.90;;;6.40;;
7410;SDS011;3747;48.628;9.058;2022-07-23T15:23:42;6.10;;;5.57;;
7410;SDS011;3747;48.628;9.058;2022-07-23T15:26:09;5.67;;;5.17;;
7410;SDS011;3747;48.628;9.058;2022-07-23T15:28:36;6.90;;;5.60;;
7410;SDS011;3747;48.628;9.058;2022-07-23T15:31:03;6.27;;;5.67;;
7410;SDS011;3747;48.628;9.058;2022-07-23T15:33:30;6.13;;;5.63;;